createdAt,value
2023-05-01T00:01:06.325Z,5.74
2023-05-01T00:03:36.187Z,5.75
2023-05-01T00:06:08.135Z,5.71
2023-05-01T00:08:40.460Z,5.71
2023-05-01T00:11:12.792Z,5.78
2023-05-01T00:13:42.293Z,5.69
2023-05-01T00:16:12.723Z,5.65
2023-05-01T00:18:42.620Z,5.61
2023-05-01T00:21:12.140Z,5.64
2023-05-01T00:23:44.376Z,5.59
2023-05-01T00:26:13.850Z,5.53
2023-05-01T00:28:43.354Z,5.44
2023-05-01T00:31:12.936Z,5.49
2023-05-01T00:33:42.473Z,5.52
2023-05-01T00:36:12.257Z,5.47
2023-05-01T00:38:44.316Z,5.42
2023-05-01T00:41:14.049Z,5.43
2023-05-01T00:43:43.529Z,5.50
2023-05-01T00:46:13.624Z,5.39
2023-05-01T00:48:43.374Z,5.31
2023-05-01T00:51:13.111Z,5.30
2023-05-01T00:53:46.314Z,5.32
2023-05-01T00:56:16.385Z,5.25
2023-05-01T00:58:45.933Z,5.20
2023-05-01T01:01:15.551Z,5.11
2023-05-01T01:03:45.180Z,5.17
2023-05-01T01:06:18.616Z,5.17
2023-05-01T01:08:59.096Z,5.10
2023-05-01T01:11:34.296Z,5.14
2023-05-01T01:14:13.734Z,5.13
2023-05-01T01:16:48.881Z,5.17
2023-05-01T01:19:46.246Z,5.14
2023-05-01T01:22:24.254Z,5.04
2023-05-01T01:25:17.527Z,5.09
2023-05-01T01:28:03.446Z,4.99
2023-05-01T01:30:45.018Z,4.96
2023-05-01T01:33:41.353Z,4.93
2023-05-01T01:36:16.342Z,4.91
2023-05-01T01:38:49.978Z,4.85
2023-05-01T01:41:23.925Z,4.78
2023-05-01T01:43:58.558Z,4.84
2023-05-01T01:46:29.562Z,4.87
2023-05-01T01:48:59.711Z,4.90
2023-05-01T01:51:32.715Z,4.83
2023-05-01T01:54:03.450Z,4.84
2023-05-01T01:56:33.880Z,4.76
2023-05-01T01:59:04.438Z,4.68
2023-05-01T02:01:34.165Z,4.69
2023-05-01T02:04:05.468Z,4.66
2023-05-01T02:06:38.308Z,4.58
2023-05-01T02:09:08.173Z,4.51
2023-05-01T02:11:38.108Z,4.52
2023-05-01T02:14:09.377Z,4.42
2023-05-01T02:16:41.016Z,4.39
2023-05-01T02:19:10.771Z,4.33
2023-05-01T02:21:44.176Z,4.25
2023-05-01T02:24:16.836Z,4.23
2023-05-01T02:26:49.848Z,4.28
2023-05-01T02:29:19.327Z,4.24
2023-05-01T02:31:48.949Z,4.27
2023-05-01T02:34:18.736Z,4.29
2023-05-01T02:36:51.191Z,4.22
2023-05-01T02:39:21.225Z,4.21
2023-05-01T02:41:51.812Z,4.07
2023-05-01T02:44:22.538Z,4.10
2023-05-01T02:46:52.720Z,4.13
2023-05-01T02:49:23.159Z,4.15
2023-05-01T02:51:55.618Z,4.08
2023-05-01T02:54:25.366Z,3.97
2023-05-01T02:56:55.079Z,3.95
2023-05-01T02:59:24.580Z,3.95
2023-05-01T03:01:54.260Z,4.06
2023-05-01T03:04:23.838Z,4.02
2023-05-01T03:06:55.978Z,3.91
2023-05-01T03:09:25.723Z,3.98
2023-05-01T03:11:55.242Z,3.86
2023-05-01T03:14:25.306Z,3.90
2023-05-01T03:16:54.901Z,4.06
2023-05-01T03:19:24.829Z,4.01
2023-05-01T03:21:56.947Z,3.94
2023-05-01T03:24:27.160Z,3.88
2023-05-01T03:26:56.765Z,3.97
2023-05-01T03:29:26.382Z,4.07
2023-05-01T03:31:57.762Z,3.99
2023-05-01T03:34:27.623Z,3.92
2023-05-01T03:36:59.719Z,3.81
2023-05-01T03:39:29.209Z,3.85
2023-05-01T03:41:59.182Z,4.23
2023-05-01T03:44:28.905Z,4.43
2023-05-01T03:46:58.373Z,4.56
2023-05-01T03:49:28.541Z,4.51
2023-05-01T03:52:00.793Z,4.61
2023-05-01T03:54:30.596Z,4.69
2023-05-01T03:57:00.712Z,4.63
2023-05-01T03:59:30.496Z,4.67
2023-05-01T04:02:00.113Z,4.73
2023-05-01T04:04:30.175Z,4.66
2023-05-01T04:07:02.920Z,4.94
2023-05-01T04:09:32.639Z,4.81
2023-05-01T04:12:02.822Z,4.48
2023-05-01T04:14:32.523Z,4.35
2023-05-01T04:17:02.074Z,4.16
2023-05-01T04:19:31.560Z,4.29
2023-05-01T04:22:03.887Z,4.36
2023-05-01T04:24:33.372Z,4.44
2023-05-01T04:27:02.894Z,4.44
2023-05-01T04:29:32.543Z,4.35
2023-05-01T04:32:02.193Z,4.52
2023-05-01T04:34:32.096Z,4.52
2023-05-01T04:37:04.492Z,4.85
2023-05-01T04:39:34.054Z,5.21
2023-05-01T04:42:03.712Z,5.35
2023-05-01T04:44:34.358Z,5.46
2023-05-01T04:47:04.819Z,5.60
2023-05-01T04:49:34.685Z,5.66
2023-05-01T04:52:07.476Z,5.63
2023-05-01T04:54:36.998Z,5.65
2023-05-01T04:57:09.820Z,5.62
2023-05-01T04:59:39.642Z,5.78
2023-05-01T05:02:09.179Z,5.69
2023-05-01T05:04:38.933Z,5.79
2023-05-01T05:07:11.511Z,5.78
2023-05-01T05:09:41.089Z,5.84
2023-05-01T05:12:10.585Z,5.99
2023-05-01T05:14:42.604Z,6.00
2023-05-01T05:17:12.820Z,5.96
2023-05-01T05:19:42.328Z,5.91
2023-05-01T05:22:16.972Z,5.88
2023-05-01T05:24:47.208Z,6.08
2023-05-01T05:27:16.721Z,6.12
2023-05-01T05:29:46.258Z,6.15
2023-05-01T05:32:15.883Z,6.11
2023-05-01T05:34:45.386Z,6.31
2023-05-01T05:37:17.462Z,6.22
2023-05-01T05:39:46.939Z,6.23
2023-05-01T05:42:16.449Z,6.50
2023-05-01T05:44:46.045Z,6.53
2023-05-01T05:47:15.604Z,6.57
2023-05-01T05:49:45.369Z,6.56
2023-05-01T05:52:17.668Z,6.50
2023-05-01T05:54:47.263Z,6.44
2023-05-01T05:57:16.753Z,6.67
2023-05-01T05:59:47.032Z,6.65
2023-05-01T06:02:16.712Z,6.83
2023-05-01T06:04:46.297Z,6.87
2023-05-01T06:07:18.385Z,6.88
2023-05-01T06:09:47.957Z,6.86
2023-05-01T06:12:17.548Z,6.99
2023-05-01T06:14:47.585Z,7.01
2023-05-01T06:17:17.474Z,7.35
2023-05-01T06:19:47.062Z,7.35
2023-05-01T06:22:19.618Z,7.40
2023-05-01T06:24:49.184Z,7.36
2023-05-01T06:27:18.654Z,7.52
2023-05-01T06:29:48.111Z,7.68
2023-05-01T06:32:17.617Z,7.84
2023-05-01T06:34:47.227Z,7.92
2023-05-01T06:37:19.290Z,8.08
2023-05-01T06:39:50.420Z,8.26
2023-05-01T06:42:23.021Z,8.21
2023-05-01T06:44:52.565Z,8.49
2023-05-01T06:47:22.492Z,8.65
2023-05-01T06:49:52.047Z,8.76
2023-05-01T06:52:24.155Z,8.73
2023-05-01T06:54:53.816Z,8.89
2023-05-01T06:57:23.445Z,8.98
2023-05-01T06:59:52.986Z,9.04
2023-05-01T07:02:22.493Z,9.21
2023-05-01T07:04:52.035Z,9.36
2023-05-01T07:07:24.353Z,9.49
2023-05-01T07:09:54.300Z,9.64
2023-05-01T07:12:24.078Z,9.80
2023-05-01T07:14:53.637Z,9.73
2023-05-01T07:17:23.181Z,9.79
2023-05-01T07:19:52.691Z,9.76
2023-05-01T07:22:24.788Z,9.69
2023-05-01T07:24:54.325Z,9.83
2023-05-01T07:27:24.915Z,10.09
2023-05-01T07:29:54.788Z,10.29
2023-05-01T07:32:24.442Z,10.43
2023-05-01T07:34:54.904Z,10.50
2023-05-01T07:37:27.186Z,10.50
2023-05-01T07:39:56.906Z,10.44
2023-05-01T07:42:26.589Z,10.46
2023-05-01T07:44:56.317Z,10.53
2023-05-01T07:47:27.756Z,10.67
2023-05-01T07:49:57.531Z,10.85
2023-05-01T07:52:29.841Z,10.99
2023-05-01T07:54:59.407Z,11.02
2023-05-01T07:57:28.957Z,11.08
2023-05-01T07:59:58.830Z,11.07
2023-05-01T08:02:28.680Z,11.10
2023-05-01T08:04:58.361Z,11.41
2023-05-01T08:07:30.458Z,11.74
2023-05-01T08:10:00.816Z,11.80
2023-05-01T08:12:31.636Z,11.95
2023-05-01T08:15:01.137Z,11.82
2023-05-01T08:17:30.669Z,11.71
2023-05-01T08:20:00.208Z,11.54
2023-05-01T08:22:32.617Z,11.74
2023-05-01T08:25:02.880Z,11.82
2023-05-01T08:27:32.335Z,11.53
2023-05-01T08:30:01.884Z,11.59
2023-05-01T08:32:32.422Z,11.60
2023-05-01T08:35:02.062Z,11.46
2023-05-01T08:37:34.261Z,11.39
2023-05-01T08:40:08.438Z,11.61
2023-05-01T08:42:39.148Z,11.93
2023-05-01T08:45:10.959Z,12.23
2023-05-01T08:47:43.566Z,12.37
2023-05-01T08:50:14.122Z,12.06
2023-05-01T08:52:47.148Z,12.18
2023-05-01T08:55:17.902Z,12.16
2023-05-01T08:57:48.674Z,12.16
2023-05-01T09:00:22.250Z,12.31
2023-05-01T09:02:52.760Z,12.15
2023-05-01T09:05:23.524Z,12.22
2023-05-01T09:07:56.839Z,12.58
2023-05-01T09:10:27.579Z,12.66
2023-05-01T09:12:59.972Z,12.74
2023-05-01T09:15:30.295Z,12.83
2023-05-01T09:18:03.628Z,13.07
2023-05-01T09:20:37.397Z,12.63
2023-05-01T09:23:09.539Z,12.55
2023-05-01T09:25:39.108Z,12.86
2023-05-01T09:28:08.669Z,12.97
2023-05-01T09:30:39.560Z,13.16
2023-05-01T09:33:13.326Z,13.19
2023-05-01T09:35:56.274Z,13.29
2023-05-01T09:38:30.217Z,13.15
2023-05-01T09:41:06.853Z,13.41
2023-05-01T09:43:36.809Z,13.53
2023-05-01T09:46:09.710Z,13.30
2023-05-01T09:48:40.414Z,13.44
2023-05-01T09:51:25.598Z,13.63
2023-05-01T09:53:58.890Z,13.56
2023-05-01T09:56:29.415Z,13.86
2023-05-01T09:59:00.248Z,14.09
2023-05-01T10:01:42.850Z,14.12
2023-05-01T10:04:12.648Z,14.06
2023-05-01T10:06:42.772Z,14.30
2023-05-01T10:09:17.756Z,14.26
2023-05-01T10:11:52.328Z,14.33
2023-05-01T10:14:24.317Z,13.78
2023-05-01T10:16:54.754Z,13.90
2023-05-01T10:19:24.453Z,13.79
2023-05-01T10:21:54.038Z,14.06
2023-05-01T10:24:26.811Z,13.98
2023-05-01T10:26:56.771Z,14.30
2023-05-01T10:29:30.809Z,14.54
2023-05-01T10:32:00.789Z,14.52
2023-05-01T10:34:30.958Z,14.65
2023-05-01T10:37:03.182Z,15.00
2023-05-01T10:39:36.339Z,15.22
2023-05-01T10:42:11.557Z,15.21
2023-05-01T10:44:41.772Z,15.02
2023-05-01T10:47:42.967Z,15.48
2023-05-01T10:50:16.151Z,15.44
2023-05-01T10:53:16.538Z,15.85
2023-05-01T10:55:49.536Z,15.68
2023-05-01T10:58:57.976Z,15.72
2023-05-01T11:01:31.874Z,15.68
2023-05-01T11:04:02.792Z,15.46
2023-05-01T11:06:33.008Z,15.22
2023-05-01T11:09:03.048Z,15.37
2023-05-01T11:11:53.239Z,15.50
2023-05-01T11:14:23.403Z,15.24
2023-05-01T11:16:53.095Z,15.53
2023-05-01T11:19:52.746Z,16.03
2023-05-01T11:22:22.353Z,16.35
2023-05-01T11:24:52.101Z,16.33
2023-05-01T11:27:24.813Z,16.46
2023-05-01T11:29:54.774Z,16.46
2023-05-01T11:32:27.796Z,16.46
2023-05-01T11:35:00.081Z,16.12
2023-05-01T11:37:44.995Z,16.45
2023-05-01T11:40:24.582Z,16.60
2023-05-01T11:43:03.285Z,16.72
2023-05-01T11:45:33.594Z,16.28
2023-05-01T11:48:04.641Z,15.99
2023-05-01T11:50:36.051Z,16.15
2023-05-01T11:53:06.621Z,16.27
2023-05-01T11:55:38.594Z,16.13
2023-05-01T11:58:11.039Z,16.39
2023-05-01T12:00:42.100Z,16.21
2023-05-01T12:03:13.308Z,16.37
2023-05-01T12:05:44.088Z,16.20
2023-05-01T12:08:18.701Z,16.73
2023-05-01T12:10:49.552Z,16.85
2023-05-01T12:13:22.539Z,16.56
2023-05-01T12:15:54.618Z,16.94
2023-05-01T12:18:24.424Z,17.17
2023-05-01T12:20:56.445Z,17.56
2023-05-01T12:23:34.158Z,18.26
2023-05-01T12:26:04.652Z,18.81
2023-05-01T12:28:37.689Z,18.12
2023-05-01T12:31:07.961Z,18.09
2023-05-01T12:33:37.592Z,18.38
2023-05-01T12:36:13.582Z,18.37
2023-05-01T12:38:43.089Z,17.77
2023-05-01T12:41:13.565Z,17.95
2023-05-01T12:43:45.648Z,18.26
2023-05-01T12:46:17.824Z,18.32
2023-05-01T12:48:49.316Z,19.09
2023-05-01T12:51:21.628Z,19.42
2023-05-01T12:53:51.840Z,19.56
2023-05-01T12:56:26.104Z,19.69
2023-05-01T12:58:58.462Z,19.40
2023-05-01T13:01:28.822Z,19.06
2023-05-01T13:03:59.500Z,18.82
2023-05-01T13:06:36.968Z,17.92
2023-05-01T13:09:11.156Z,17.89
2023-05-01T13:11:41.081Z,18.38
2023-05-01T13:14:13.569Z,18.63
2023-05-01T13:16:48.490Z,18.88
2023-05-01T13:19:28.988Z,19.07
2023-05-01T13:21:59.516Z,18.34
2023-05-01T13:24:38.948Z,18.71
2023-05-01T13:27:08.859Z,18.44
2023-05-01T13:29:41.860Z,18.39
2023-05-01T13:32:15.140Z,18.01
2023-05-01T13:34:45.963Z,18.31
2023-05-01T13:37:16.122Z,18.49
2023-05-01T13:39:46.522Z,18.33
2023-05-01T13:42:18.877Z,18.49
2023-05-01T13:44:54.537Z,18.38
2023-05-01T13:47:26.824Z,18.75
2023-05-01T13:49:57.633Z,18.34
2023-05-01T13:52:27.921Z,18.60
2023-05-01T13:54:59.838Z,19.25
2023-05-01T13:57:29.956Z,19.27
2023-05-01T14:00:01.994Z,19.56
2023-05-01T14:02:32.387Z,19.44
2023-05-01T14:05:02.352Z,19.50
2023-05-01T14:07:32.469Z,19.62
2023-05-01T14:10:02.327Z,19.61
2023-05-01T14:12:33.431Z,19.79
2023-05-01T14:15:08.166Z,19.49
2023-05-01T14:17:38.545Z,19.88
2023-05-01T14:20:09.525Z,20.24
2023-05-01T14:22:46.173Z,20.33
2023-05-01T14:25:35.440Z,20.26
2023-05-01T14:28:08.388Z,19.54
2023-05-01T14:30:41.831Z,19.43
2023-05-01T14:33:12.844Z,19.87
2023-05-01T14:35:47.283Z,19.67
2023-05-01T14:38:17.988Z,19.54
2023-05-01T14:40:47.993Z,19.53
2023-05-01T14:43:19.947Z,19.41
2023-05-01T14:45:52.881Z,19.32
2023-05-01T14:48:25.622Z,19.30
2023-05-01T14:50:55.770Z,19.41
2023-05-01T14:53:26.003Z,19.71
2023-05-01T14:55:55.503Z,20.08
2023-05-01T14:58:27.281Z,19.94
2023-05-01T15:00:59.317Z,19.67
2023-05-01T15:03:28.956Z,19.38
2023-05-01T15:05:58.616Z,18.94
2023-05-01T15:08:28.221Z,18.92
2023-05-01T15:10:57.778Z,18.89
2023-05-01T15:13:27.312Z,18.71
2023-05-01T15:15:59.565Z,18.56
2023-05-01T15:18:29.062Z,18.33
2023-05-01T15:20:58.588Z,18.33
2023-05-01T15:23:28.054Z,18.29
2023-05-01T15:25:57.587Z,18.27
2023-05-01T15:28:27.522Z,17.96
2023-05-01T15:30:59.616Z,17.97
2023-05-01T15:33:29.217Z,17.72
2023-05-01T15:35:58.774Z,17.57
2023-05-01T15:38:28.422Z,17.40
2023-05-01T15:40:58.041Z,17.18
2023-05-01T15:43:27.527Z,17.14
2023-05-01T15:46:00.600Z,17.12
2023-05-01T15:48:30.180Z,16.94
2023-05-01T15:50:59.700Z,16.87
2023-05-01T15:53:29.220Z,16.92
2023-05-01T15:56:00.173Z,16.80
2023-05-01T15:58:29.736Z,16.73
2023-05-01T16:01:09.508Z,16.84
2023-05-01T16:03:57.256Z,16.87
2023-05-01T16:06:27.961Z,17.03
2023-05-01T16:08:57.693Z,17.18
2023-05-01T16:11:27.216Z,17.25
2023-05-01T16:13:56.858Z,17.24
2023-05-01T16:16:29.843Z,17.30
2023-05-01T16:19:01.401Z,17.33
2023-05-01T16:21:31.765Z,17.35
2023-05-01T16:24:03.748Z,17.38
2023-05-01T16:26:33.374Z,17.28
2023-05-01T16:29:05.380Z,17.20
2023-05-01T16:31:41.675Z,17.24
2023-05-01T16:34:33.013Z,17.11
2023-05-01T16:37:21.546Z,16.94
2023-05-01T16:39:52.045Z,16.93
2023-05-01T16:42:21.551Z,16.92
2023-05-01T16:44:51.061Z,16.79
2023-05-01T16:47:23.180Z,16.67
2023-05-01T16:49:53.933Z,16.60
2023-05-01T16:52:23.442Z,16.62
2023-05-01T16:54:54.501Z,16.68
2023-05-01T16:57:24.273Z,16.74
2023-05-01T16:59:57.904Z,16.97
2023-05-01T17:02:30.276Z,16.81
2023-05-01T17:05:00.493Z,16.61
2023-05-01T17:07:30.433Z,16.73
2023-05-01T17:10:00.058Z,16.52
2023-05-01T17:12:29.812Z,16.31
2023-05-01T17:14:59.328Z,16.10
2023-05-01T17:17:31.439Z,15.79
2023-05-01T17:20:01.244Z,15.73
2023-05-01T17:22:31.074Z,15.75
2023-05-01T17:25:03.010Z,15.58
2023-05-01T17:27:33.669Z,15.45
2023-05-01T17:30:03.810Z,15.31
2023-05-01T17:32:37.267Z,15.17
2023-05-01T17:35:08.268Z,15.11
2023-05-01T17:37:39.890Z,15.08
2023-05-01T17:40:11.902Z,14.88
2023-05-01T17:42:42.010Z,14.72
2023-05-01T17:45:12.322Z,14.61
2023-05-01T17:47:46.611Z,14.52
2023-05-01T17:50:16.561Z,14.44
2023-05-01T17:52:46.222Z,14.36
2023-05-01T17:55:18.024Z,14.36
2023-05-01T17:57:48.835Z,14.35
2023-05-01T18:00:19.924Z,14.27
2023-05-01T18:02:52.115Z,14.28
2023-05-01T18:05:22.744Z,14.11
2023-05-01T18:07:52.272Z,14.06
2023-05-01T18:10:21.837Z,14.06
2023-05-01T18:12:52.110Z,14.11
2023-05-01T18:15:24.450Z,14.06
2023-05-01T18:17:56.844Z,13.97
2023-05-01T18:20:26.523Z,13.91
2023-05-01T18:22:56.320Z,13.91
2023-05-01T18:25:25.789Z,13.86
2023-05-01T18:27:55.706Z,13.87
2023-05-01T18:30:25.284Z,13.73
2023-05-01T18:32:57.364Z,13.65
2023-05-01T18:35:26.841Z,13.47
2023-05-01T18:37:56.655Z,13.39
2023-05-01T18:40:27.363Z,13.24
2023-05-01T18:42:57.173Z,13.16
2023-05-01T18:45:26.692Z,13.04
2023-05-01T18:48:00.630Z,12.99
2023-05-01T18:50:30.436Z,12.86
2023-05-01T18:52:59.980Z,12.79
2023-05-01T18:55:29.521Z,12.77
2023-05-01T18:57:59.299Z,12.71
2023-05-01T19:00:29.353Z,12.56
2023-05-01T19:03:01.828Z,12.51
2023-05-01T19:05:31.689Z,12.46
2023-05-01T19:08:05.266Z,12.39
2023-05-01T19:10:36.673Z,12.34
2023-05-01T19:13:08.609Z,12.25
2023-05-01T19:15:38.160Z,12.28
2023-05-01T19:18:10.913Z,12.28
2023-05-01T19:20:40.605Z,12.08
2023-05-01T19:23:10.117Z,11.98
2023-05-01T19:25:40.013Z,11.89
2023-05-01T19:28:09.771Z,11.91
2023-05-01T19:30:39.293Z,11.77
2023-05-01T19:33:11.776Z,11.75
2023-05-01T19:35:41.308Z,11.61
2023-05-01T19:38:10.870Z,11.55
2023-05-01T19:40:42.389Z,11.50
2023-05-01T19:43:13.420Z,11.51
2023-05-01T19:45:42.998Z,11.45
2023-05-01T19:48:15.176Z,11.54
2023-05-01T19:50:51.139Z,11.47
2023-05-01T19:53:21.180Z,11.21
2023-05-01T19:55:50.676Z,11.09
2023-05-01T19:58:20.209Z,11.06
2023-05-01T20:00:49.951Z,11.11
2023-05-01T20:03:22.201Z,11.01
2023-05-01T20:05:51.766Z,10.92
2023-05-01T20:08:22.525Z,10.87
2023-05-01T20:10:52.071Z,10.88
2023-05-01T20:13:21.565Z,10.82
2023-05-01T20:15:51.573Z,10.70
2023-05-01T20:18:23.626Z,10.53
2023-05-01T20:20:53.210Z,10.52
2023-05-01T20:23:23.650Z,10.56
2023-05-01T20:25:55.186Z,10.47
2023-05-01T20:28:24.680Z,10.45
2023-05-01T20:30:54.203Z,10.35
2023-05-01T20:33:26.320Z,10.27
2023-05-01T20:35:56.129Z,10.24
2023-05-01T20:38:25.657Z,10.23
2023-05-01T20:40:55.153Z,10.19
2023-05-01T20:43:24.696Z,10.20
2023-05-01T20:45:54.263Z,10.13
2023-05-01T20:48:26.962Z,10.15
2023-05-01T20:50:56.492Z,10.12
2023-05-01T20:53:26.024Z,10.16
2023-05-01T20:55:55.506Z,10.10
2023-05-01T20:58:24.960Z,10.00
2023-05-01T21:00:58.569Z,9.89
2023-05-01T21:03:30.954Z,9.99
2023-05-01T21:06:01.551Z,9.99
2023-05-01T21:08:31.558Z,9.92
2023-05-01T21:11:04.233Z,9.83
2023-05-01T21:13:34.764Z,9.81
2023-05-01T21:16:05.704Z,9.75
2023-05-01T21:18:38.106Z,9.69
2023-05-01T21:21:07.715Z,9.70
2023-05-01T21:23:37.324Z,9.67
2023-05-01T21:26:06.849Z,9.61
2023-05-01T21:28:36.387Z,9.60
2023-05-01T21:31:05.948Z,9.57
2023-05-01T21:33:38.100Z,9.63
2023-05-01T21:36:08.298Z,9.61
2023-05-01T21:38:38.055Z,9.62
2023-05-01T21:41:07.765Z,9.59
2023-05-01T21:43:37.502Z,9.58
2023-05-01T21:46:07.089Z,9.55
2023-05-01T21:48:39.175Z,9.53
2023-05-01T21:51:08.825Z,9.57
2023-05-01T21:53:38.304Z,9.51
2023-05-01T21:56:09.058Z,9.54
2023-05-01T21:58:38.742Z,9.54
2023-05-01T22:01:09.616Z,9.52
2023-05-01T22:03:45.127Z,9.49
2023-05-01T22:06:14.684Z,9.47
2023-05-01T22:08:44.214Z,9.50
2023-05-01T22:11:13.705Z,9.48
2023-05-01T22:13:43.172Z,9.43
2023-05-01T22:16:14.179Z,9.41
2023-05-01T22:18:49.386Z,9.38
2023-05-01T22:21:19.370Z,9.38
2023-05-01T22:23:50.718Z,9.38
2023-05-01T22:26:20.169Z,9.33
2023-05-01T22:28:49.831Z,9.34
2023-05-01T22:31:19.440Z,9.30
2023-05-01T22:33:53.424Z,9.27
2023-05-01T22:36:22.881Z,9.32
2023-05-01T22:38:52.510Z,9.32
2023-05-01T22:41:22.065Z,9.24
2023-05-01T22:43:51.870Z,9.28
2023-05-01T22:46:21.432Z,9.24
2023-05-01T22:48:53.596Z,9.26
2023-05-01T22:51:23.066Z,9.23
2023-05-01T22:53:52.564Z,9.26
2023-05-01T22:56:22.099Z,9.22
2023-05-01T22:58:51.786Z,9.24
2023-05-01T23:01:22.848Z,9.23
2023-05-01T23:03:55.556Z,9.19
2023-05-01T23:06:25.234Z,9.20
2023-05-01T23:08:55.992Z,9.19
2023-05-01T23:11:26.332Z,9.14
2023-05-01T23:13:55.781Z,9.21
2023-05-01T23:16:25.604Z,9.17
2023-05-01T23:18:58.182Z,9.17
2023-05-01T23:21:28.133Z,9.18
2023-05-01T23:23:57.647Z,9.13
2023-05-01T23:26:29.191Z,9.11
2023-05-01T23:29:00.168Z,9.14
2023-05-01T23:31:30.253Z,9.10
2023-05-01T23:34:04.654Z,9.11
2023-05-01T23:36:34.125Z,9.05
2023-05-01T23:39:03.724Z,9.06
2023-05-01T23:41:33.307Z,9.10
2023-05-01T23:44:02.774Z,9.09
2023-05-01T23:46:32.348Z,9.12
2023-05-01T23:49:04.717Z,9.16
2023-05-01T23:51:35.314Z,9.13
2023-05-01T23:54:04.900Z,9.14
2023-05-01T23:56:34.418Z,9.11
2023-05-01T23:59:04.205Z,9.13
